الصفحة الرئيسية
METAR-TAF:

METAR-TAF

مطار :

مطار كريستيانو رونالدو

فونشال, جزر ماديرا, البرتغال

دائرة عرض: 32-41-52N, خط طول: 016-46-28W, ارتفاع: 59 متر

مراقبة الطقس الحالي

تاريخ ووقت الإصدار 10 دقيقة قبل الساعة 23:00UTC
ريح 17 عقدة من الشمال/الشمال الشرقي تتزايد حتى 30 عقدة, الاتجاه يتراوح بين الشمال/الشمال الغربي و الشرق/الشمال الشرقي
درجة الحرارة 22°درجة مئوية
الرطوبة 73%
ضغط 1021 hPa
الرؤية 10 كم أو أكثر
غيوم قليلة على ارتفاع 1600 قدم

METAR: LPMA 222300Z 03017G30KT 340V060 9999 FEW016 22/17 Q1021

زمن: 00:10 (23:10 UTC)

توقعات

تاريخ ووقت الإصدار 6ساعات و 10 دقيقة قبل الساعة 17:00UTC
التوقعات صالحة من22 الساعة 18 UTC إلى 23 الساعة 18 UTC
ريح 15 عقدة من الشمال/الشمال الشرقي
الرؤية 10 كم أو أكثر
غيوم متفرقة على ارتفاع 1600 قدم
مؤقت
من 22 الساعة 18 UTC إلى 23 الساعة 18 UTC
ريح 20 عقدة من الشمال/الشمال الشرقي تتزايد حتى 30 عقدة

TAF: LPMA 221700Z 2218/2318 03015KT 9999 SCT016 TEMPO 2218/2318 03020G30KT

أرصاد الطقس والتوقعات من أكثر من 4000 مطار (تقارير الطقس للمطار METAR والتنبؤ بالطقس بالمطارTAF).

المحطات المتاحة هي النقط الصفراء والحمراء على الخريطة.

حرك المؤشر فوق النقطة لمعرفة اسم المحطة.

ثم انقر لمعرفة أرصاد وتوقعات الطقس.

لتغيير الخارطة: اضغط على الأزرار الخضراء مع رمز الصليب الأسود للتكبير. على الزر الأخضر مع شرطة للتصغير، أو على الأسهم الخضراء للخرائط المجاورة.


METAR-TAF: